Time;durP1;ratioP1;P1;durP2;ratioP2;P2;SDS_P1;SDS_P2;PMS_P1;PMS_P2;Temp;Humidity;BMP_temperature;BMP_pressure;BME280_temperature;BME280_humidity;BME280_pressure;Samples;Min_cycle;Max_cycle;Signal;HPM_P1;HPM_P2
2022/05/20 00:00:17;;;;;;;9.88;7.25;;;;;;;17.80;100.00;100848.22;5068744;28;20072;-79
2022/05/20 00:02:46;;;;;;;9.48;7.35;;;;;;;18.04;100.00;100897.44;5064463;28;20052;-75
2022/05/20 00:05:14;;;;;;;9.23;7.22;;;;;;;17.99;100.00;100893.34;5055085;28;20037;-76
2022/05/20 00:07:41;;;;;;;10.80;7.97;;;;;;;17.96;100.00;100888.19;5064282;28;20083;-77
2022/05/20 00:10:10;;;;;;;11.05;8.25;;;;;;;17.95;100.00;100876.63;5063709;28;20629;-78
2022/05/20 00:12:37;;;;;;;15.63;8.27;;;;;;;17.95;100.00;100878.44;5040778;28;20037;-77
2022/05/20 00:15:06;;;;;;;11.98;8.20;;;;;;;17.95;100.00;100870.41;5065583;28;20040;-78
2022/05/20 00:17:35;;;;;;;9.93;7.70;;;;;;;17.81;100.00;100845.44;5065619;28;20041;-79
2022/05/20 00:20:04;;;;;;;10.52;7.57;;;;;;;17.93;100.00;100867.84;5057744;28;20045;-79
2022/05/20 00:22:31;;;;;;;11.38;8.07;;;;;;;17.96;100.00;100869.44;5062657;28;20079;-77
2022/05/20 00:27:43;;;;;;;9.98;7.60;;;;;;;17.80;100.00;100865.16;5054448;28;20056;-78
2022/05/20 00:30:10;;;;;;;12.63;8.35;;;;;;;17.85;100.00;100873.72;5058203;28;20493;-78
2022/05/20 00:32:37;;;;;;;12.73;8.68;;;;;;;17.87;100.00;100885.22;5052382;28;20044;-77
2022/05/20 00:35:05;;;;;;;15.02;8.63;;;;;;;17.88;100.00;100891.44;5068462;28;20048;-78
2022/05/20 00:37:31;;;;;;;12.02;8.77;;;;;;;17.88;100.00;100894.97;5067557;28;20053;-77
2022/05/20 00:39:59;;;;;;;11.25;7.95;;;;;;;17.94;100.00;100895.50;5063121;28;20095;-78
2022/05/20 00:42:26;;;;;;;14.40;8.13;;;;;;;17.99;100.00;100906.75;5041149;28;20497;-77
2022/05/20 00:44:53;;;;;;;9.75;7.65;;;;;;;17.85;100.00;100883.59;5062782;28;20149;-79
2022/05/20 00:47:19;;;;;;;11.95;7.60;;;;;;;17.87;100.00;100893.25;5063737;28;20055;-78
2022/05/20 00:49:51;;;;;;;13.65;7.93;;;;;;;17.92;100.00;100884.91;5061489;28;20057;-79
2022/05/20 00:52:22;;;;;;;12.75;7.28;;;;;;;17.84;100.00;100877.38;5037595;28;20052;-78
2022/05/20 00:54:53;;;;;;;10.20;7.93;;;;;;;17.78;100.00;100853.72;5067520;28;20469;-78
2022/05/20 00:57:21;;;;;;;;;;;;;;;17.87;100.00;100877.16;5062383;28;20052;-78
2022/05/20 00:59:59;;;;;;;9.90;8.57;;;;;;;17.85;100.00;100884.44;5057940;28;19924;-78
2022/05/20 01:02:27;;;;;;;10.05;8.35;;;;;;;17.69;100.00;100858.84;5064129;28;20044;-78
2022/05/20 01:04:56;;;;;;;15.00;9.38;;;;;;;17.79;100.00;100876.81;5063304;28;20064;-79
2022/05/20 01:07:25;;;;;;;12.18;8.35;;;;;;;17.83;100.00;100881.00;5066936;28;20470;-78
2022/05/20 01:09:52;;;;;;;12.68;9.00;;;;;;;17.90;100.00;100880.59;5061769;28;20053;-78
2022/05/20 01:12:21;;;;;;;8.93;7.97;;;;;;;17.59;100.00;100838.97;5059893;28;20075;-78
2022/05/20 01:14:49;;;;;;;10.48;8.35;;;;;;;17.94;100.00;100882.13;5061038;28;20542;-80
2022/05/20 01:17:16;;;;;;;12.68;9.20;;;;;;;17.91;100.00;100899.25;5068387;28;20048;-80
2022/05/20 01:19:47;;;;;;;15.07;9.15;;;;;;;17.74;100.00;100908.44;5062275;28;20052;-79
2022/05/20 01:22:30;;;;;;;13.35;9.50;;;;;;;17.69;100.00;100920.44;5061640;28;20041;-79
2022/05/20 01:24:56;;;;;;;14.15;10.45;;;;;;;17.60;100.00;100905.81;5051093;28;20051;-78
2022/05/20 01:27:23;;;;;;;16.15;10.15;;;;;;;17.60;100.00;100927.25;5065943;28;20511;-78
2022/05/20 01:29:50;;;;;;;13.38;10.52;;;;;;;17.47;100.00;100921.00;5053788;28;20099;-79
2022/05/20 01:32:16;;;;;;;15.93;11.13;;;;;;;17.34;100.00;100901.34;5059600;28;20056;-80
2022/05/20 01:34:43;;;;;;;13.68;10.00;;;;;;;17.25;100.00;100883.25;5059608;28;20045;-79
2022/05/20 01:37:10;;;;;;;13.80;10.75;;;;;;;17.26;100.00;100888.50;5060638;28;20113;-79
2022/05/20 01:39:38;;;;;;;17.13;11.55;;;;;;;17.23;100.00;100903.91;5062237;28;20044;-79
2022/05/20 01:42:22;;;;;;;16.08;11.25;;;;;;;17.09;100.00;100886.09;5059019;28;20053;-78
2022/05/20 01:45:01;;;;;;;17.65;11.82;;;;;;;17.19;100.00;100904.09;5059638;28;20098;-78
2022/05/20 01:47:44;;;;;;;15.95;11.65;;;;;;;17.21;100.00;100904.00;5058328;28;20393;-79
2022/05/20 01:50:14;;;;;;;20.73;11.32;;;;;;;17.12;100.00;100886.75;5060819;28;20056;-76
2022/05/20 01:52:51;;;;;;;14.27;10.38;;;;;;;17.16;100.00;100877.53;5060265;28;20045;-76
2022/05/20 01:55:26;;;;;;;13.90;11.68;;;;;;;17.31;100.00;100877.50;5056244;28;20044;-77
2022/05/20 01:58:12;;;;;;;15.80;11.57;;;;;;;17.34;100.00;100877.25;5071304;28;20097;-79
2022/05/20 02:00:40;;;;;;;17.70;11.07;;;;;;;17.15;100.00;100873.16;5061794;28;20061;-79
2022/05/20 02:03:39;;;;;;;12.30;10.65;;;;;;;17.25;100.00;100900.16;5067554;28;20456;-79
2022/05/20 02:06:12;;;;;;;16.13;10.68;;;;;;;17.19;100.00;100879.16;5034302;28;20045;-78
2022/05/20 02:08:53;;;;;;;13.25;10.88;;;;;;;17.18;100.00;100872.09;5065768;28;20049;-79
2022/05/20 02:11:22;;;;;;;17.23;12.02;;;;;;;17.03;100.00;100847.19;5073062;28;20068;-79
2022/05/20 02:14:05;;;;;;;15.13;11.77;;;;;;;17.09;100.00;100864.69;5076871;28;20054;-79
2022/05/20 02:16:39;;;;;;;17.15;12.65;;;;;;;17.15;100.00;100870.50;5059842;28;20094;-80
2022/05/20 02:19:12;;;;;;;15.63;11.73;;;;;;;17.17;100.00;100881.06;5070022;28;20053;-79
2022/05/20 02:21:45;;;;;;;17.27;12.57;;;;;;;17.04;100.00;100867.66;5065573;28;20044;-80
2022/05/20 02:24:15;;;;;;;15.48;11.68;;;;;;;17.18;100.00;100897.03;5063293;28;20102;-80
2022/05/20 02:26:47;;;;;;;16.83;13.00;;;;;;;17.16;100.00;100890.91;5062983;28;20067;-80
2022/05/20 02:29:18;;;;;;;17.65;12.50;;;;;;;17.19;100.00;100897.88;5064676;28;20041;-80
2022/05/20 02:31:55;;;;;;;14.25;12.50;;;;;;;17.22;100.00;100899.50;5070653;28;20492;-80
2022/05/20 02:34:22;;;;;;;15.95;12.75;;;;;;;17.10;100.00;100875.28;5066794;28;20052;-80
2022/05/20 02:36:49;;;;;;;15.15;12.75;;;;;;;17.20;100.00;100899.59;5067148;28;20078;-81
2022/05/20 02:39:16;;;;;;;17.05;12.43;;;;;;;17.18;100.00;100885.47;5072874;28;20050;-81
2022/05/20 02:41:46;;;;;;;14.35;12.63;;;;;;;17.21;100.00;100884.41;5062866;28;20044;-81
2022/05/20 02:44:13;;;;;;;;;;;;;;;17.18;100.00;100898.84;5069530;28;20446;-80
2022/05/20 02:46:41;;;;;;;17.48;14.02;;;;;;;17.00;100.00;100890.22;5063679;28;19920;-80
2022/05/20 02:49:09;;;;;;;14.98;13.00;;;;;;;17.02;100.00;100911.50;5057833;28;20049;-80
2022/05/20 02:51:35;;;;;;;18.23;13.07;;;;;;;17.01;100.00;100920.50;5055238;28;20048;-80
2022/05/20 02:54:04;;;;;;;22.85;14.88;;;;;;;16.93;100.00;100934.41;5070891;28;20112;-80
2022/05/20 02:56:33;;;;;;;19.67;14.35;;;;;;;16.68;100.00;100900.34;5065048;28;20052;-80
2022/05/20 03:04:45;;;;;;;21.85;16.17;;;;;;;16.66;100.00;100845.25;5062972;28;20083;-75
2022/05/20 03:07:16;;;;;;;21.40;16.52;;;;;;;16.51;100.00;100833.72;5068832;28;20196;-73
2022/05/20 03:09:42;;;;;;;19.02;16.27;;;;;;;16.41;100.00;100852.13;5053792;28;20057;-74
2022/05/20 03:12:13;;;;;;;23.75;18.33;;;;;;;16.32;100.00;100860.75;5059002;28;20102;-75
2022/05/20 03:14:39;;;;;;;22.67;17.90;;;;;;;16.23;100.00;100850.63;5050334;28;20098;-73
2022/05/20 03:17:06;;;;;;;27.38;19.45;;;;;;;16.28;100.00;100859.22;5054137;28;20319;-72
2022/05/20 03:19:33;;;;;;;25.58;20.17;;;;;;;16.38;100.00;100878.19;5043820;28;20052;-72
2022/05/20 03:22:02;;;;;;;24.67;19.83;;;;;;;16.32;100.00;100879.47;5058756;28;20118;-72
2022/05/20 03:24:30;;;;;;;23.50;18.45;;;;;;;16.29;100.00;100887.66;5053653;28;20511;-71
2022/05/20 03:26:57;;;;;;;25.35;19.75;;;;;;;16.18;100.00;100876.78;5050797;28;20068;-72
2022/05/20 03:29:25;;;;;;;25.15;19.75;;;;;;;16.21;100.00;100881.09;5057213;28;20094;-71
2022/05/20 03:31:52;;;;;;;22.40;18.88;;;;;;;16.13;100.00;100881.56;5051392;28;20048;-71
2022/05/20 03:34:20;;;;;;;22.23;18.67;;;;;;;16.22;100.00;100893.47;5054606;28;20081;-72
2022/05/20 03:36:49;;;;;;;22.67;18.45;;;;;;;16.24;100.00;100897.78;5056608;28;20090;-74
2022/05/20 03:39:22;;;;;;;24.15;19.42;;;;;;;16.06;100.00;100858.84;5063545;28;20041;-72
2022/05/20 03:41:49;;;;;;;27.83;21.15;;;;;;;16.02;100.00;100842.16;5062629;28;20072;-72
2022/05/20 03:44:18;;;;;;;24.20;18.88;;;;;;;16.03;100.00;100848.38;5062996;28;20048;-72
2022/05/20 03:46:51;;;;;;;25.70;20.55;;;;;;;16.11;100.00;100854.06;5056749;28;20543;-71
2022/05/20 03:49:29;;;;;;;22.40;18.65;;;;;;;16.10;100.00;100852.34;5056056;28;20136;-72
2022/05/20 03:51:57;;;;;;;23.13;19.58;;;;;;;15.98;100.00;100835.28;5055565;28;20052;-72
2022/05/20 03:54:30;;;;;;;24.13;19.13;;;;;;;16.04;100.00;100845.59;5057867;28;20056;-72
2022/05/20 03:57:00;;;;;;;27.38;20.17;;;;;;;15.98;100.00;100827.28;5040107;28;20577;-72
2022/05/20 03:59:28;;;;;;;22.25;19.02;;;;;;;16.06;100.00;100846.34;5064857;28;20083;-73
2022/05/20 04:01:56;;;;;;;23.85;19.15;;;;;;;16.05;100.00;100841.97;5069517;28;20041;-73
2022/05/20 04:04:31;;;;;;;23.05;18.40;;;;;;;16.02;100.00;100830.63;5066676;28;20053;-72
2022/05/20 04:07:09;;;;;;;24.90;18.90;;;;;;;16.07;100.00;100825.81;5060036;28;20437;-72
2022/05/20 04:09:36;;;;;;;22.45;17.77;;;;;;;16.17;100.00;100844.81;5061113;28;20393;-71
2022/05/20 04:12:10;;;;;;;23.57;19.30;;;;;;;16.07;100.00;100829.34;5069668;28;20045;-74
2022/05/20 04:14:36;;;;;;;21.15;18.23;;;;;;;16.20;100.00;100856.19;5062456;28;20060;-73
2022/05/20 04:17:04;;;;;;;20.77;18.20;;;;;;;16.09;100.00;100834.59;5042688;28;20068;-72
2022/05/20 04:19:33;;;;;;;22.45;18.35;;;;;;;16.03;100.00;100835.00;5063840;28;20044;-72
2022/05/20 04:22:05;;;;;;;25.85;19.02;;;;;;;16.18;100.00;100855.41;5054609;28;20049;-76
2022/05/20 04:24:32;;;;;;;23.85;18.50;;;;;;;16.13;100.00;100855.69;5057363;28;20056;-75
2022/05/20 04:27:00;;;;;;;23.52;19.55;;;;;;;16.17;100.00;100891.09;5066071;28;20072;-73
2022/05/20 04:29:27;;;;;;;27.98;20.65;;;;;;;16.16;100.00;100907.22;5059494;28;20076;-74
2022/05/20 04:31:54;;;;;;;26.77;20.17;;;;;;;16.03;100.00;100907.13;5066636;28;20052;-72
2022/05/20 04:34:22;;;;;;;24.30;19.90;;;;;;;16.01;100.00;100917.06;5056920;28;20055;-72
2022/05/20 04:36:49;;;;;;;22.40;19.23;;;;;;;16.00;100.00;100926.00;5064190;28;20053;-72
2022/05/20 04:39:16;;;;;;;27.42;21.48;;;;;;;15.95;100.00;100914.75;5060426;28;20047;-72
2022/05/20 04:47:23;;;;;;;28.30;20.95;;;;;;;16.20;100.00;100925.66;5026455;28;20130;-72
2022/05/20 04:49:51;;;;;;;24.67;20.65;;;;;;;16.22;100.00;100936.22;5054242;28;20119;-72
2022/05/20 04:52:24;;;;;;;26.33;21.23;;;;;;;16.16;100.00;100942.81;5064932;28;20079;-72
2022/05/20 04:54:51;;;;;;;28.63;20.17;;;;;;;16.18;100.00;100974.81;5035579;28;20112;-73
2022/05/20 04:57:24;;;;;;;30.73;21.25;;;;;;;16.16;100.00;101016.78;5031853;28;20493;-72
2022/05/20 04:59:57;;;;;;;48.65;25.55;;;;;;;16.25;100.00;100965.44;5055879;28;20045;-70
2022/05/20 05:02:24;;;;;;;52.95;27.27;;;;;;;16.22;100.00;100864.94;5051061;28;20445;-69
2022/05/20 05:04:51;;;;;;;67.93;30.95;;;;;;;16.24;100.00;100798.03;5064592;28;20052;-69
2022/05/20 05:07:17;;;;;;;64.43;30.92;;;;;;;16.25;100.00;100794.41;5062727;28;20040;-68
2022/05/20 05:09:45;;;;;;;48.97;29.90;;;;;;;16.25;100.00;100813.13;5066386;28;20068;-70
2022/05/20 05:12:14;;;;;;;47.78;28.92;;;;;;;16.23;100.00;100801.66;5056866;28;20124;-73
2022/05/20 05:14:50;;;;;;;44.47;27.23;;;;;;;16.18;100.00;100812.66;5063676;28;20071;-70
2022/05/20 05:20:13;;;;;;;38.97;24.23;;;;;;;16.25;100.00;100811.31;5060876;28;20449;-71
2022/05/20 05:22:40;;;;;;;38.60;23.70;;;;;;;16.24;100.00;100798.91;5049040;28;20076;-73
2022/05/20 05:25:10;;;;;;;38.20;24.00;;;;;;;16.30;100.00;100809.22;5054259;28;20059;-73
2022/05/20 05:27:37;;;;;;;45.28;27.27;;;;;;;16.34;100.00;100816.06;5061758;28;20700;-72
2022/05/20 05:30:04;;;;;;;39.80;25.80;;;;;;;16.31;100.00;100810.06;5063220;28;20115;-74
2022/05/20 05:32:31;;;;;;;42.45;26.58;;;;;;;16.30;100.00;100827.91;5052619;28;20045;-71
2022/05/20 05:34:58;;;;;;;48.30;28.80;;;;;;;16.31;100.00;100828.78;5063447;28;20126;-72
2022/05/20 05:37:25;;;;;;;47.40;27.23;;;;;;;16.31;100.00;100836.78;5060392;28;20080;-71
2022/05/20 05:39:52;;;;;;;48.30;28.20;;;;;;;16.34;100.00;100834.78;5067977;28;20044;-72
2022/05/20 05:42:20;;;;;;;52.92;29.92;;;;;;;16.46;100.00;100842.00;5051414;28;20072;-71
2022/05/20 05:44:47;;;;;;;53.72;30.92;;;;;;;16.53;100.00;100829.09;5069804;28;20060;-70
2022/05/20 05:47:15;;;;;;;48.22;30.33;;;;;;;16.54;100.00;100819.25;5053930;28;20174;-71
2022/05/20 05:49:43;;;;;;;52.88;30.63;;;;;;;16.61;100.00;100828.59;5061831;28;20413;-72
2022/05/20 05:52:09;;;;;;;58.83;34.00;;;;;;;16.69;100.00;100824.50;5058133;28;20751;-72
2022/05/20 05:54:37;;;;;;;75.20;40.13;;;;;;;16.83;100.00;100850.38;5056899;28;20465;-71
2022/05/20 05:57:07;;;;;;;63.28;36.80;;;;;;;16.88;100.00;100842.88;5061423;28;20053;-73
2022/05/20 05:59:37;;;;;;;63.88;35.88;;;;;;;16.88;100.00;100839.34;5060548;28;20076;-72
2022/05/20 06:02:05;;;;;;;51.15;31.55;;;;;;;16.80;100.00;100832.69;5065086;28;20053;-71
2022/05/20 06:04:32;;;;;;;54.47;32.08;;;;;;;16.85;100.00;100843.06;5064154;28;20136;-71
2022/05/20 06:07:05;;;;;;;44.25;29.27;;;;;;;16.80;100.00;100851.41;5033576;28;20132;-71
2022/05/20 06:09:34;;;;;;;45.55;28.42;;;;;;;16.82;100.00;100852.19;5060887;28;20053;-71
2022/05/20 06:12:01;;;;;;;45.58;27.73;;;;;;;16.93;100.00;100866.66;5056963;28;20049;-75
2022/05/20 06:14:29;;;;;;;46.70;30.58;;;;;;;17.02;100.00;100858.00;5059488;28;20075;-72
2022/05/20 06:16:56;;;;;;;47.20;29.33;;;;;;;16.95;100.00;100846.00;5052303;28;20044;-75
2022/05/20 06:19:23;;;;;;;45.15;29.00;;;;;;;17.10;100.00;100864.56;5067027;28;20059;-72
2022/05/20 06:21:51;;;;;;;38.47;26.67;;;;;;;17.14;100.00;100870.59;5063885;28;20058;-72
2022/05/20 06:24:24;;;;;;;47.38;29.73;;;;;;;17.07;100.00;100869.28;5068464;28;20056;-71
2022/05/20 06:26:50;;;;;;;49.97;30.83;;;;;;;17.32;100.00;100860.44;5065387;28;20052;-74
2022/05/20 06:29:19;;;;;;;40.15;26.65;;;;;;;17.34;100.00;100859.38;5063918;28;20076;-73
2022/05/20 06:31:46;;;;;;;35.22;23.67;;;;;;;17.15;100.00;100834.84;5047667;28;20502;-74
2022/05/20 06:39:48;;;;;;;37.97;24.85;;;;;;;17.11;100.00;100817.28;5048771;28;20052;-73
2022/05/20 06:40:16;;;;;;;38.60;24.92;;;;;;;17.26;100.00;100805.53;5066448;28;20049;-74
2022/05/20 06:42:44;;;;;;;37.28;25.52;;;;;;;17.37;100.00;100808.31;5050283;28;20048;-74
2022/05/20 06:45:16;;;;;;;37.63;25.85;;;;;;;17.46;100.00;100785.44;5051019;28;20076;-74
2022/05/20 06:47:43;;;;;;;37.92;28.00;;;;;;;17.89;100.00;100804.72;5064769;28;20056;-73
2022/05/20 06:50:12;;;;;;;44.67;28.60;;;;;;;18.26;100.00;100818.19;5069826;28;20057;-72
2022/05/20 06:52:39;;;;;;;34.30;24.63;;;;;;;18.49;100.00;100810.16;5040389;28;20045;-73
2022/05/20 06:55:08;;;;;;;22.33;18.20;;;;;;;18.62;100.00;100814.66;5045250;28;20131;-74
2022/05/20 06:57:38;;;;;;;18.90;15.13;;;;;;;18.20;100.00;100817.66;5071629;28;20055;-74
2022/05/20 07:00:11;;;;;;;22.85;14.50;;;;;;;17.92;100.00;100843.84;5067394;28;20051;-73
2022/05/20 07:03:03;;;;;;;24.33;16.98;;;;;;;17.94;100.00;100831.19;5017534;28;20128;-73
2022/05/20 07:05:31;;;;;;;21.70;15.05;;;;;;;18.15;100.00;100830.50;5024403;28;20135;-73
2022/05/20 07:07:58;;;;;;;19.67;15.88;;;;;;;18.16;100.00;100829.56;5010910;28;20080;-73
2022/05/20 07:10:26;;;;;;;17.05;13.63;;;;;;;18.16;100.00;100829.56;5024498;28;20054;-73
2022/05/20 07:12:53;;;;;;;22.23;13.20;;;;;;;17.93;100.00;100827.66;5033784;28;20053;-74
2022/05/20 07:15:20;;;;;;;21.05;16.50;;;;;;;18.28;100.00;100837.66;5024860;28;20041;-74
2022/05/20 07:17:48;;;;;;;19.50;15.30;;;;;;;18.63;100.00;100822.59;5037068;28;20615;-74
2022/05/20 07:20:15;;;;;;;18.23;12.27;;;;;;;18.61;100.00;100821.84;5018209;28;20054;-74
2022/05/20 07:22:42;;;;;;;17.38;12.63;;;;;;;18.60;100.00;100813.91;5024049;28;20057;-75
2022/05/20 07:25:10;;;;;;;14.75;11.90;;;;;;;18.69;100.00;100823.97;5020389;28;20080;-75
2022/05/20 07:27:39;;;;;;;22.92;14.20;;;;;;;18.61;100.00;100824.53;5045947;28;20052;-75
2022/05/20 07:30:07;;;;;;;17.88;15.57;;;;;;;18.42;100.00;100816.94;5072016;28;20083;-79
2022/05/20 07:32:34;;;;;;;23.08;17.70;;;;;;;18.56;100.00;100816.81;5058700;28;20464;-75
2022/05/20 07:35:01;;;;;;;19.50;16.42;;;;;;;18.81;100.00;100809.66;5077905;28;20052;-75
2022/05/20 07:37:28;;;;;;;20.15;17.35;;;;;;;18.76;100.00;100804.59;5061377;28;20409;-75
2022/05/20 07:39:55;;;;;;;21.88;17.60;;;;;;;18.70;100.00;100820.31;5071488;28;20078;-76
2022/05/20 07:42:22;;;;;;;22.33;16.63;;;;;;;18.54;100.00;100813.38;5071477;28;20048;-76
2022/05/20 07:44:50;;;;;;;22.10;17.85;;;;;;;18.49;100.00;100809.31;5071167;28;20090;-75
2022/05/20 07:47:17;;;;;;;22.58;19.02;;;;;;;18.76;100.00;100801.94;5070683;28;20067;-75
2022/05/20 07:49:44;;;;;;;20.10;16.67;;;;;;;18.94;100.00;100799.69;5064962;28;20056;-75
2022/05/20 07:52:13;;;;;;;18.63;16.42;;;;;;;18.79;100.00;100799.03;5069112;28;20156;-76
2022/05/20 07:54:44;;;;;;;23.55;17.90;;;;;;;18.84;100.00;100807.59;5064913;28;20045;-76
2022/05/20 07:57:14;;;;;;;20.80;18.15;;;;;;;18.93;100.00;100792.63;5062355;28;20448;-75
2022/05/20 07:59:48;;;;;;;20.42;16.73;;;;;;;19.31;100.00;100807.66;5065736;28;20053;-74
2022/05/20 08:02:18;;;;;;;21.95;16.20;;;;;;;19.42;100.00;100807.66;5062771;28;20040;-75
2022/05/20 08:04:55;;;;;;;20.83;17.67;;;;;;;19.50;100.00;100795.41;5060769;28;20084;-71
2022/05/20 08:07:34;;;;;;;19.17;16.65;;;;;;;19.71;100.00;100806.28;5063070;28;20037;-75
2022/05/20 08:10:11;;;;;;;20.35;17.83;;;;;;;19.58;100.00;100797.47;5068803;28;20103;-75
2022/05/20 08:12:38;;;;;;;19.35;17.27;;;;;;;19.64;100.00;100798.84;5061171;28;20068;-76
2022/05/20 08:15:05;;;;;;;21.30;18.10;;;;;;;19.71;100.00;100790.16;5062349;28;20060;-75
2022/05/20 08:17:36;;;;;;;19.95;17.10;;;;;;;19.82;100.00;100784.81;5068309;28;20054;-75
2022/05/20 08:20:05;;;;;;;21.13;18.10;;;;;;;20.20;100.00;100797.00;5068880;28;20052;-73
2022/05/20 08:22:32;;;;;;;16.70;14.97;;;;;;;20.50;100.00;100783.78;5046349;28;20515;-73
2022/05/20 08:25:02;;;;;;;20.15;16.13;;;;;;;20.69;100.00;100787.66;5067878;28;20052;-77
2022/05/20 08:27:31;;;;;;;18.10;15.48;;;;;;;20.98;100.00;100788.75;5064823;28;20045;-74
2022/05/20 08:30:05;;;;;;;18.10;16.17;;;;;;;20.93;100.00;100770.31;5067783;28;20071;-77
2022/05/20 08:32:31;;;;;;;16.10;13.95;;;;;;;20.79;100.00;100777.81;5064373;28;20516;-74
2022/05/20 08:34:58;;;;;;;16.73;15.13;;;;;;;20.82;100.00;100766.78;5063720;28;20455;-74
2022/05/20 08:37:25;;;;;;;17.58;15.32;;;;;;;20.81;100.00;100740.88;5058470;28;20052;-75
2022/05/20 08:39:53;;;;;;;16.33;14.68;;;;;;;20.99;100.00;100745.56;5065506;28;20056;-75
2022/05/20 08:42:28;;;;;;;17.38;15.45;;;;;;;21.16;100.00;100760.28;5067191;28;20045;-74
2022/05/20 08:44:56;;;;;;;17.08;14.35;;;;;;;21.18;100.00;100761.00;5069926;28;20044;-77
2022/05/20 08:47:27;;;;;;;16.63;14.85;;;;;;;21.26;100.00;100741.50;5066643;28;20048;-79
2022/05/20 08:50:00;;;;;;;18.08;14.90;;;;;;;21.24;100.00;100741.66;5074925;28;20052;-80
2022/05/20 08:52:28;;;;;;;17.67;14.82;;;;;;;21.31;100.00;100728.50;5074534;28;20079;-80
2022/05/20 08:54:55;;;;;;;16.27;13.73;;;;;;;21.62;100.00;100754.50;5064676;28;20421;-80
2022/05/20 08:57:38;;;;;;;17.67;14.40;;;;;;;22.00;100.00;100736.81;5068931;28;20048;-80
2022/05/20 09:00:11;;;;;;;15.95;14.10;;;;;;;22.36;99.50;100746.13;5060318;28;20056;-81
2022/05/20 09:02:38;;;;;;;17.35;14.68;;;;;;;22.24;96.34;100737.28;5062862;28;20045;-79
2022/05/20 09:05:23;;;;;;;16.42;14.80;;;;;;;21.93;98.14;100706.81;5059689;28;20037;-79
2022/05/20 09:08:19;;;;;;;17.13;15.10;;;;;;;21.95;99.17;100723.69;5062408;28;20988;-77
2022/05/20 09:10:50;;;;;;;18.92;16.13;;;;;;;21.74;100.00;100717.50;5062920;28;20063;-76
2022/05/20 09:15:43;;;;;;;18.92;15.73;;;;;;;21.86;98.77;100707.50;5063439;28;20041;-75
2022/05/20 09:16:23;;;;;;;17.95;15.38;;;;;;;22.00;94.91;100705.31;5059227;28;20560;-76
2022/05/20 09:19:13;;;;;;;17.40;14.85;;;;;;;22.35;94.88;100726.38;5068772;28;20094;-81
2022/05/20 09:22:11;;;;;;;18.95;15.57;;;;;;;22.45;88.77;100721.00;5057570;28;20485;-79
2022/05/20 09:24:44;;;;;;;21.10;18.27;;;;;;;22.43;91.71;100711.34;5065848;28;20044;-77
2022/05/20 09:27:18;;;;;;;17.20;15.43;;;;;;;22.60;90.68;100716.91;5058377;28;20071;-76
2022/05/20 09:29:53;;;;;;;19.30;16.75;;;;;;;22.84;87.13;100704.84;5053925;28;20049;-76
2022/05/20 09:32:26;;;;;;;19.77;17.52;;;;;;;22.86;90.03;100700.16;5058024;28;20055;-74
2022/05/20 09:35:11;;;;;;;22.30;17.42;;;;;;;22.96;85.40;100695.63;5046717;28;20071;-76
2022/05/20 09:37:41;;;;;;;19.27;14.88;;;;;;;23.11;84.54;100688.75;5051763;28;20045;-75
2022/05/20 09:40:22;;;;;;;21.27;15.80;;;;;;;23.55;81.07;100680.97;5064650;28;20546;-76
2022/05/20 09:43:31;;;;;;;18.90;15.63;;;;;;;24.07;79.00;100669.47;5064444;28;20129;-84
2022/05/20 09:46:00;;;;;;;19.13;13.82;;;;;;;24.40;77.00;100656.28;5057288;28;20056;-76
2022/05/20 09:48:38;;;;;;;;;;;;;;;24.58;74.53;100659.81;5055672;28;20087;-75
2022/05/20 09:51:13;;;;;;;18.95;14.18;;;;;;;24.54;73.91;100660.31;5051674;28;20332;-74
2022/05/20 09:53:58;;;;;;;16.73;13.40;;;;;;;24.39;74.79;100649.19;5059474;28;20049;-73
2022/05/20 09:56:38;;;;;;;16.20;14.23;;;;;;;24.37;73.60;100643.06;5056478;28;20057;-76
2022/05/20 09:59:21;;;;;;;16.02;14.27;;;;;;;24.29;73.77;100659.22;5064121;28;20044;-74
2022/05/20 10:01:58;;;;;;;16.65;13.52;;;;;;;24.42;73.42;100644.28;5064024;28;20056;-76
2022/05/20 10:04:36;;;;;;;15.82;13.88;;;;;;;24.37;72.96;100656.59;5064269;28;20456;-76
2022/05/20 10:07:07;;;;;;;13.48;10.68;;;;;;;24.52;73.69;100648.78;5069864;28;20090;-78
2022/05/20 10:09:45;;;;;;;17.05;11.65;;;;;;;24.73;69.32;100627.63;5069597;28;20067;-74
2022/05/20 10:12:27;;;;;;;15.63;10.48;;;;;;;24.95;68.78;100642.56;5057687;28;20488;-73
2022/05/20 10:15:12;;;;;;;12.18;10.88;;;;;;;24.85;67.35;100639.06;5057811;28;20472;-73
2022/05/20 10:18:00;;;;;;;10.50;9.25;;;;;;;24.97;68.86;100645.97;5059206;28;20048;-73
2022/05/20 10:21:06;;;;;;;14.10;10.32;;;;;;;25.30;67.25;100619.91;5062583;28;20052;-76
2022/05/20 10:23:54;;;;;;;11.55;9.77;;;;;;;25.52;65.17;100609.34;5028493;28;20127;-75
2022/05/20 10:26:39;;;;;;;10.52;9.40;;;;;;;25.60;64.55;100613.09;5065124;28;20044;-78
2022/05/20 10:32:47;;;;;;;9.57;8.50;;;;;;;25.70;61.97;100581.28;5063220;28;20060;-77
2022/05/20 10:35:20;;;;;;;10.93;7.68;;;;;;;25.97;59.44;100582.91;5062914;28;20079;-75
2022/05/20 10:38:11;;;;;;;10.00;6.95;;;;;;;26.10;55.91;100573.25;5040672;28;20110;-77
2022/05/20 10:40:47;;;;;;;10.13;7.13;;;;;;;26.40;54.59;100592.66;5060945;28;20107;-77
2022/05/20 10:43:29;;;;;;;8.63;6.30;;;;;;;26.63;54.78;100571.91;5064649;28;20044;-79
2022/05/20 10:49:22;;;;;;;8.88;6.80;;;;;;;26.26;52.96;100567.00;5064499;28;20048;-77
2022/05/20 10:52:12;;;;;;;11.98;7.15;;;;;;;26.19;54.40;100555.94;5063314;28;20045;-75
2022/05/20 10:54:55;;;;;;;13.30;6.32;;;;;;;26.45;53.05;100546.81;5064260;28;20131;-80
2022/05/20 10:57:47;;;;;;;12.15;7.00;;;;;;;26.69;50.74;100533.22;5060140;28;20044;-76
2022/05/20 11:00:23;;;;;;;8.63;6.22;;;;;;;27.00;50.54;100546.94;5047432;28;20058;-78
2022/05/20 11:03:05;;;;;;;8.82;6.55;;;;;;;27.07;50.71;100531.63;5070287;28;20061;-77
2022/05/20 11:06:05;;;;;;;9.48;6.10;;;;;;;27.29;49.89;100527.28;5057241;28;20049;-80
2022/05/20 11:08:39;;;;;;;7.55;6.53;;;;;;;27.43;49.94;100525.69;5068188;28;20091;-75
2022/05/20 11:11:46;;;;;;;10.45;6.00;;;;;;;27.53;49.70;100505.41;5056888;28;20060;-80
2022/05/20 11:14:42;;;;;;;13.77;7.03;;;;;;;27.76;49.10;100516.34;5060514;28;20044;-79
2022/05/20 11:17:12;;;;;;;8.80;6.68;;;;;;;27.75;49.05;100497.47;5059401;28;20041;-77
2022/05/20 11:20:00;;;;;;;7.28;6.10;;;;;;;27.29;50.07;100470.19;5048794;28;20482;-82
2022/05/20 11:22:55;;;;;;;8.70;6.43;;;;;;;27.44;50.11;100471.09;5065339;28;20149;-79
2022/05/20 11:25:43;;;;;;;10.77;7.18;;;;;;;27.49;49.97;100476.00;5072247;28;20040;-80
2022/05/20 11:28:42;;;;;;;14.82;7.05;;;;;;;27.55;49.91;100472.56;5031631;28;20189;-82
2022/05/20 11:31:49;;;;;;;8.63;6.70;;;;;;;27.72;49.89;100467.88;5065602;28;20397;-82
2022/05/20 11:34:38;;;;;;;10.52;7.05;;;;;;;27.99;48.76;100434.69;5058536;28;20475;-81
2022/05/20 11:37:46;;;;;;;9.48;7.10;;;;;;;28.25;48.46;100405.19;5064011;28;20499;-81
2022/05/20 11:40:25;;;;;;;10.60;7.15;;;;;;;28.42;47.77;100415.91;5066021;28;20042;-80
2022/05/20 11:43:19;;;;;;;11.77;7.57;;;;;;;28.75;47.63;100406.34;5054760;28;20077;-79
2022/05/20 11:46:04;;;;;;;11.80;8.52;;;;;;;28.70;47.71;100380.69;5052153;28;20045;-80
2022/05/20 11:49:00;;;;;;;9.57;8.10;;;;;;;28.73;48.11;100397.50;5064594;28;20060;-81
2022/05/20 11:51:41;;;;;;;8.82;7.65;;;;;;;28.50;49.39;100400.31;5050277;28;20114;-83
2022/05/20 11:54:18;;;;;;;14.18;7.72;;;;;;;28.57;48.53;100398.53;5067582;28;20049;-82
2022/05/20 11:56:51;;;;;;;10.38;8.20;;;;;;;28.70;48.08;100424.28;5048017;28;20056;-83
2022/05/20 11:59:30;;;;;;;11.27;8.57;;;;;;;28.21;48.76;100443.88;5070203;28;20646;-80